createdAt,value
2022-10-11T00:02:26.742Z,83.46
2022-10-11T00:04:59.696Z,83.63
2022-10-11T00:07:32.065Z,83.54
2022-10-11T00:10:05.968Z,83.03
2022-10-11T00:12:38.767Z,83.00
2022-10-11T00:15:13.743Z,84.32
2022-10-11T00:17:56.109Z,85.16
2022-10-11T00:20:38.538Z,85.63
2022-10-11T00:23:27.515Z,85.85
2022-10-11T00:26:10.451Z,86.31
2022-10-11T00:28:52.471Z,86.40
2022-10-11T00:31:35.984Z,86.25
2022-10-11T00:34:18.378Z,86.23
2022-10-11T00:37:07.523Z,86.50
2022-10-11T00:39:49.642Z,86.34
2022-10-11T00:42:38.431Z,86.50
2022-10-11T00:46:08.420Z,86.76
2022-10-11T00:48:56.582Z,87.10
2022-10-11T00:51:50.718Z,87.00
2022-10-11T00:54:41.799Z,86.57
2022-10-11T00:57:36.237Z,87.19
2022-10-11T01:00:19.523Z,87.45
2022-10-11T01:03:02.783Z,87.81
2022-10-11T01:05:44.473Z,88.00
2022-10-11T01:08:33.919Z,88.35
2022-10-11T01:11:20.548Z,88.45
2022-10-11T01:14:42.608Z,88.02
2022-10-11T01:17:34.960Z,88.55
2022-10-11T01:20:44.830Z,88.62
2022-10-11T01:23:59.554Z,89.42
2022-10-11T01:27:24.767Z,88.25
2022-10-11T01:30:19.855Z,88.49
2022-10-11T01:33:18.491Z,88.82
2022-10-11T01:36:10.798Z,89.26
2022-10-11T01:38:57.698Z,89.58
2022-10-11T01:41:50.842Z,89.89
2022-10-11T01:44:36.472Z,89.91
2022-10-11T01:47:20.084Z,90.07
2022-10-11T01:50:03.216Z,89.71
2022-10-11T01:52:51.743Z,90.10
2022-10-11T01:55:40.512Z,90.11
2022-10-11T01:58:36.342Z,89.92
2022-10-11T02:01:26.785Z,90.69
2022-10-11T02:04:25.765Z,90.82
2022-10-11T02:07:21.758Z,89.86
2022-10-11T02:10:15.241Z,90.27
2022-10-11T02:13:02.656Z,90.54
2022-10-11T02:15:47.288Z,90.87
2022-10-11T02:18:54.236Z,91.50
2022-10-11T02:21:41.297Z,90.29
2022-10-11T02:24:34.295Z,90.31
2022-10-11T02:27:21.082Z,91.24
2022-10-11T02:30:09.752Z,92.08
2022-10-11T02:33:02.500Z,92.49
2022-10-11T02:35:57.376Z,92.71
2022-10-11T02:38:44.900Z,93.40
2022-10-11T02:41:34.419Z,93.44
2022-10-11T02:44:23.052Z,93.18
2022-10-11T02:47:13.645Z,93.59
2022-10-11T02:50:02.697Z,93.89
2022-10-11T02:52:44.849Z,93.28
2022-10-11T02:55:34.215Z,93.25
2022-10-11T02:58:17.444Z,93.49
2022-10-11T03:01:06.385Z,93.50
2022-10-11T03:03:48.140Z,93.39
2022-10-11T03:06:37.208Z,93.61
2022-10-11T03:09:25.028Z,93.29
2022-10-11T03:12:07.159Z,92.95
2022-10-11T03:14:55.815Z,93.10
2022-10-11T03:17:37.775Z,92.85
2022-10-11T03:20:20.674Z,93.03
2022-10-11T03:23:10.058Z,92.77
2022-10-11T03:25:59.112Z,92.84
2022-10-11T03:28:46.947Z,92.99
2022-10-11T03:31:28.719Z,92.80
2022-10-11T03:34:17.746Z,93.23
2022-10-11T03:36:59.600Z,94.24
2022-10-11T03:39:48.613Z,95.06
2022-10-11T03:42:30.396Z,95.35
2022-10-11T03:45:19.519Z,94.73
2022-10-11T03:48:01.682Z,94.58
2022-10-11T03:50:44.239Z,94.28
2022-10-11T03:53:27.297Z,94.69
2022-10-11T03:56:16.647Z,95.01
2022-10-11T03:59:05.687Z,95.10
2022-10-11T04:01:47.548Z,94.91
2022-10-11T04:04:30.540Z,94.55
2022-10-11T04:07:19.570Z,94.79
2022-10-11T04:10:01.415Z,94.60
2022-10-11T04:12:44.385Z,94.32
2022-10-11T04:15:27.411Z,93.97
2022-10-11T04:18:16.492Z,93.63
2022-10-11T04:20:58.218Z,93.23
2022-10-11T04:23:47.318Z,92.70
2022-10-11T04:26:29.131Z,92.80
2022-10-11T04:29:18.119Z,92.16
2022-10-11T04:31:59.995Z,92.10
2022-10-11T04:34:48.933Z,92.17
2022-10-11T04:37:30.774Z,91.93
2022-10-11T04:40:13.815Z,92.25
2022-10-11T04:43:02.761Z,92.44
2022-10-11T04:45:44.643Z,92.34
2022-10-11T04:48:33.865Z,92.50
2022-10-11T04:51:15.457Z,92.34
2022-10-11T04:54:04.543Z,92.09
2022-10-11T04:56:46.298Z,92.21
2022-10-11T04:59:29.320Z,92.58
2022-10-11T05:02:18.439Z,92.61
2022-10-11T05:05:00.150Z,92.35
2022-10-11T05:07:43.151Z,92.67
2022-10-11T05:10:32.183Z,92.69
2022-10-11T05:13:13.968Z,92.61
2022-10-11T05:16:07.164Z,92.56
2022-10-11T05:18:52.800Z,92.21
2022-10-11T05:21:35.870Z,92.25
2022-10-11T05:24:18.875Z,92.73
2022-10-11T05:27:03.588Z,93.01
2022-10-11T05:29:46.576Z,92.68
2022-10-11T05:32:35.510Z,93.04
2022-10-11T05:35:17.537Z,93.51
2022-10-11T05:38:00.363Z,94.51
2022-10-11T05:40:49.535Z,95.37
2022-10-11T05:43:31.691Z,95.21
2022-10-11T05:46:14.323Z,95.28
2022-10-11T05:49:03.241Z,95.41
2022-10-11T05:51:45.099Z,95.29
2022-10-11T05:54:30.017Z,95.22
2022-10-11T05:57:18.703Z,95.58
2022-10-11T06:00:00.476Z,94.21
2022-10-11T06:02:49.867Z,94.21
2022-10-11T06:05:38.968Z,94.39
2022-10-11T06:08:20.884Z,94.22
2022-10-11T06:11:14.548Z,93.91
2022-10-11T06:14:02.371Z,94.19
2022-10-11T06:16:50.219Z,94.70
2022-10-11T06:19:32.042Z,95.35
2022-10-11T06:22:21.099Z,95.24
2022-10-11T06:25:02.957Z,95.12
2022-10-11T06:27:51.879Z,94.79
2022-10-11T06:30:33.710Z,94.48
2022-10-11T06:33:23.643Z,94.77
2022-10-11T06:36:09.632Z,94.88
2022-10-11T06:38:53.225Z,94.50
2022-10-11T06:41:41.455Z,93.86
2022-10-11T06:44:30.916Z,93.36
2022-10-11T06:47:12.591Z,93.50
2022-10-11T06:50:01.621Z,93.45
2022-10-11T06:52:43.435Z,93.26
2022-10-11T06:55:26.475Z,94.17
2022-10-11T06:58:09.533Z,93.80
2022-10-11T07:01:01.425Z,92.74
2022-10-11T07:03:44.699Z,92.89
2022-10-11T07:06:28.109Z,93.30
2022-10-11T07:09:17.114Z,92.79
2022-10-11T07:11:58.908Z,90.50
2022-10-11T07:14:47.972Z,89.95
2022-10-11T07:17:29.824Z,89.19
2022-10-11T07:20:18.911Z,89.47
2022-10-11T07:23:00.603Z,89.44
2022-10-11T07:25:53.886Z,89.39
2022-10-11T07:28:37.012Z,90.09
2022-10-11T07:31:21.463Z,90.64
2022-10-11T07:34:10.424Z,91.28
2022-10-11T07:36:59.318Z,89.90
2022-10-11T07:39:41.111Z,90.43
2022-10-11T07:42:30.130Z,88.89
2022-10-11T07:45:11.970Z,88.02
2022-10-11T07:48:00.971Z,88.85
2022-10-11T07:50:42.826Z,89.51
2022-10-11T07:53:31.835Z,89.26
2022-10-11T07:56:15.342Z,89.44
2022-10-11T07:59:04.385Z,89.61
2022-10-11T08:01:46.278Z,88.88
2022-10-11T08:04:35.107Z,90.12
2022-10-11T08:07:16.978Z,90.12
2022-10-11T08:10:07.792Z,89.89
2022-10-11T08:12:49.546Z,90.18
2022-10-11T08:15:32.663Z,90.68
2022-10-11T08:18:21.706Z,90.22
2022-10-11T08:21:13.399Z,90.35
2022-10-11T08:23:55.922Z,90.30
2022-10-11T08:26:39.249Z,89.80
2022-10-11T08:29:27.896Z,89.74
2022-10-11T08:32:11.440Z,89.69
2022-10-11T08:35:00.310Z,89.63
2022-10-11T08:37:42.107Z,88.98
2022-10-11T08:40:35.178Z,88.64
2022-10-11T08:43:29.443Z,88.04
2022-10-11T08:46:14.723Z,87.36
2022-10-11T08:48:56.881Z,87.79
2022-10-11T08:51:50.318Z,88.33
2022-10-11T08:54:44.144Z,87.49
2022-10-11T08:57:29.310Z,87.83
2022-10-11T09:00:16.808Z,87.24
2022-10-11T09:03:09.583Z,87.22
2022-10-11T09:06:06.526Z,87.21
2022-10-11T09:09:08.074Z,87.91
2022-10-11T09:12:08.507Z,87.93
2022-10-11T09:15:08.130Z,87.09
2022-10-11T09:18:09.086Z,86.21
2022-10-11T09:21:09.011Z,85.25
2022-10-11T09:24:24.233Z,85.93
2022-10-11T09:27:05.172Z,84.12
2022-10-11T09:29:51.431Z,84.71
2022-10-11T09:32:30.233Z,83.44
2022-10-11T09:35:12.043Z,84.43
2022-10-11T09:37:53.785Z,82.28
2022-10-11T09:40:38.278Z,80.51
2022-10-11T09:43:11.266Z,79.85
2022-10-11T09:45:49.463Z,79.44
2022-10-11T09:48:25.879Z,78.92
2022-10-11T09:51:04.632Z,78.18
2022-10-11T09:53:50.875Z,76.03
2022-10-11T09:56:26.043Z,76.55
2022-10-11T09:59:26.054Z,76.52
2022-10-11T10:02:20.268Z,75.47
2022-10-11T10:05:02.303Z,75.90
2022-10-11T10:07:37.035Z,75.62
2022-10-11T10:10:28.196Z,75.05
2022-10-11T10:13:04.430Z,74.62
2022-10-11T10:15:37.697Z,73.73
2022-10-11T10:18:19.984Z,74.72
2022-10-11T10:20:53.858Z,75.98
2022-10-11T10:23:29.673Z,74.50
2022-10-11T10:26:14.563Z,74.36
2022-10-11T10:28:58.912Z,75.40
2022-10-11T10:31:54.911Z,75.18
2022-10-11T10:34:33.310Z,74.66
2022-10-11T10:37:16.715Z,74.44
2022-10-11T10:39:54.247Z,75.26
2022-10-11T10:42:27.530Z,74.77
2022-10-11T10:45:00.969Z,74.75
2022-10-11T10:47:50.390Z,73.95
2022-10-11T10:50:26.922Z,75.06
2022-10-11T10:53:13.475Z,73.41
2022-10-11T10:55:50.013Z,74.51
2022-10-11T10:58:39.722Z,74.33
2022-10-11T11:01:18.887Z,74.41
2022-10-11T11:03:57.821Z,73.35
2022-10-11T11:06:37.395Z,73.21
2022-10-11T11:09:16.935Z,73.59
2022-10-11T11:11:58.595Z,73.64
2022-10-11T11:14:46.738Z,73.85
2022-10-11T11:17:28.747Z,74.11
2022-10-11T11:20:15.672Z,73.17
2022-10-11T11:22:55.198Z,72.38
2022-10-11T11:25:30.722Z,72.53
2022-10-11T11:28:18.072Z,73.45
2022-10-11T11:30:58.798Z,72.85
2022-10-11T11:33:47.787Z,72.54
2022-10-11T11:36:27.455Z,73.74
2022-10-11T11:39:02.781Z,73.40
2022-10-11T11:41:40.650Z,73.59
2022-10-11T11:44:17.413Z,73.43
2022-10-11T11:46:55.026Z,73.44
2022-10-11T11:49:33.872Z,73.54
2022-10-11T11:52:12.527Z,73.16
2022-10-11T11:54:50.851Z,74.37
2022-10-11T11:57:33.433Z,74.44
2022-10-11T12:00:13.255Z,73.71
2022-10-11T12:02:52.026Z,73.43
2022-10-11T12:05:29.062Z,73.47
2022-10-11T12:08:05.298Z,72.83
2022-10-11T12:10:53.119Z,73.91
2022-10-11T12:13:32.257Z,74.14
2022-10-11T12:16:09.534Z,73.25
2022-10-11T12:18:59.164Z,73.76
2022-10-11T12:21:34.241Z,73.96
2022-10-11T12:24:11.320Z,74.29
2022-10-11T12:26:45.077Z,73.80
2022-10-11T12:29:43.536Z,74.24
2022-10-11T12:32:50.998Z,74.06
2022-10-11T12:35:54.899Z,73.79
2022-10-11T12:38:30.578Z,74.29
2022-10-11T12:41:38.418Z,74.06
2022-10-11T12:44:21.495Z,74.39
2022-10-11T12:47:25.135Z,75.14
2022-10-11T12:50:14.839Z,74.81
2022-10-11T12:52:54.717Z,75.50
2022-10-11T12:55:46.671Z,76.53
2022-10-11T12:58:27.362Z,76.73
2022-10-11T13:01:16.854Z,77.40
2022-10-11T13:03:57.241Z,77.57
2022-10-11T13:06:34.098Z,78.12
2022-10-11T13:09:17.354Z,77.50
2022-10-11T13:11:53.743Z,77.48
2022-10-11T13:14:29.009Z,77.63
2022-10-11T13:17:15.294Z,77.82
2022-10-11T13:19:58.230Z,79.78
2022-10-11T13:22:34.907Z,80.33
2022-10-11T13:25:08.759Z,80.97
2022-10-11T13:27:42.098Z,81.98
2022-10-11T13:30:18.233Z,83.47
2022-10-11T13:32:51.768Z,83.17
2022-10-11T13:35:30.354Z,84.34
2022-10-11T13:38:04.300Z,85.12
2022-10-11T13:40:37.994Z,85.65
2022-10-11T13:43:12.826Z,87.12
2022-10-11T13:45:45.406Z,87.63
2022-10-11T13:48:17.911Z,88.51
2022-10-11T13:51:06.303Z,88.67
2022-10-11T13:53:56.387Z,89.65
2022-10-11T13:56:31.688Z,90.97
2022-10-11T13:59:05.007Z,91.92
2022-10-11T14:01:39.865Z,92.54
2022-10-11T14:04:14.792Z,93.54
2022-10-11T14:06:52.015Z,93.73
2022-10-11T14:09:29.075Z,93.10
2022-10-11T14:12:37.790Z,94.37
2022-10-11T14:15:24.842Z,95.26
2022-10-11T14:17:57.856Z,95.07
2022-10-11T14:20:38.471Z,95.11
2022-10-11T14:23:12.607Z,95.09
2022-10-11T14:25:45.651Z,95.41
2022-10-11T14:28:18.065Z,95.63
2022-10-11T14:30:51.126Z,95.61
2022-10-11T14:33:23.598Z,95.99
2022-10-11T14:35:58.275Z,95.37
2022-10-11T14:38:30.567Z,95.45
2022-10-11T14:41:03.158Z,94.41
2022-10-11T14:43:35.501Z,95.14
2022-10-11T14:46:17.635Z,95.69
2022-10-11T14:48:55.564Z,96.08
2022-10-11T14:51:33.648Z,96.42
2022-10-11T14:54:06.085Z,96.36
2022-10-11T14:56:38.727Z,96.07
2022-10-11T14:59:13.962Z,96.26
2022-10-11T15:01:50.982Z,95.92
2022-10-11T15:04:25.455Z,96.34
2022-10-11T15:06:58.123Z,96.80
2022-10-11T15:09:33.695Z,97.01
2022-10-11T15:12:06.173Z,96.49
2022-10-11T15:14:38.525Z,96.28
2022-10-11T15:17:12.218Z,96.21
2022-10-11T15:19:44.566Z,96.18
2022-10-11T15:22:16.879Z,96.28
2022-10-11T15:24:51.673Z,96.27
2022-10-11T15:27:27.921Z,95.92
2022-10-11T15:30:00.517Z,96.60
2022-10-11T15:32:33.497Z,95.91
2022-10-11T15:35:06.479Z,95.53
2022-10-11T15:37:39.578Z,95.17
2022-10-11T15:40:17.707Z,94.84
2022-10-11T15:42:51.227Z,94.61
2022-10-11T15:45:23.910Z,94.83
2022-10-11T15:47:57.051Z,96.06
2022-10-11T15:50:36.588Z,96.69
2022-10-11T15:53:11.444Z,97.22
2022-10-11T15:55:45.632Z,97.50
2022-10-11T15:58:20.903Z,97.91
2022-10-11T16:00:55.687Z,97.55
2022-10-11T16:03:29.694Z,97.57
2022-10-11T16:06:05.198Z,97.55
2022-10-11T16:08:38.862Z,97.50
2022-10-11T16:11:12.057Z,97.73
2022-10-11T16:13:44.809Z,97.32
2022-10-11T16:16:17.279Z,97.44
2022-10-11T16:18:50.378Z,97.60
2022-10-11T16:21:23.486Z,97.43
2022-10-11T16:23:55.832Z,97.86
2022-10-11T16:26:28.341Z,98.32
2022-10-11T16:29:00.760Z,97.83
2022-10-11T16:31:33.242Z,97.66
2022-10-11T16:34:06.250Z,97.98
2022-10-11T16:36:40.083Z,97.51
2022-10-11T16:39:14.378Z,97.13
2022-10-11T16:41:47.235Z,97.29
2022-10-11T16:44:23.358Z,97.69
2022-10-11T16:46:55.943Z,97.97
2022-10-11T16:49:28.934Z,98.14
2022-10-11T16:52:03.154Z,97.81
2022-10-11T16:54:35.490Z,97.25
2022-10-11T16:57:08.420Z,97.38
2022-10-11T16:59:41.129Z,97.17
2022-10-11T17:02:16.108Z,97.13
2022-10-11T17:04:50.746Z,96.17
2022-10-11T17:07:23.179Z,96.27
2022-10-11T17:09:55.604Z,97.14
2022-10-11T17:12:28.167Z,97.59
2022-10-11T17:15:00.471Z,97.19
2022-10-11T17:17:32.764Z,96.41
2022-10-11T17:20:06.846Z,96.53
2022-10-11T17:22:39.358Z,96.05
2022-10-11T17:25:11.761Z,95.52
2022-10-11T17:27:44.038Z,95.78
2022-10-11T17:30:16.810Z,95.23
2022-10-11T17:32:50.383Z,95.63
2022-10-11T17:35:23.361Z,96.14
2022-10-11T17:37:55.667Z,95.98
2022-10-11T17:40:28.030Z,95.56
2022-10-11T17:43:00.375Z,95.48
2022-10-11T17:45:32.730Z,95.88
2022-10-11T17:48:05.290Z,95.72
2022-10-11T17:50:41.547Z,95.46
2022-10-11T17:53:13.940Z,95.28
2022-10-11T17:55:48.120Z,95.63
2022-10-11T17:58:20.486Z,95.45
2022-10-11T18:00:54.121Z,95.70
2022-10-11T18:03:26.975Z,96.05
2022-10-11T18:06:02.284Z,96.58
2022-10-11T18:08:39.966Z,96.38
2022-10-11T18:11:19.958Z,96.18
2022-10-11T18:13:52.937Z,95.82
2022-10-11T18:16:29.651Z,96.00
2022-10-11T18:19:04.138Z,96.25
2022-10-11T18:21:37.283Z,95.42
2022-10-11T18:24:12.574Z,94.99
2022-10-11T18:26:45.911Z,94.74
2022-10-11T18:29:18.231Z,95.09
2022-10-11T18:31:50.571Z,95.35
2022-10-11T18:34:22.907Z,95.21
2022-10-11T18:36:56.052Z,95.16
2022-10-11T18:39:28.410Z,95.42
2022-10-11T18:42:03.804Z,95.26
2022-10-11T18:44:36.120Z,95.71
2022-10-11T18:47:08.436Z,96.37
2022-10-11T18:49:40.721Z,96.58
2022-10-11T18:52:13.689Z,96.54
2022-10-11T18:54:45.979Z,96.48
2022-10-11T18:57:18.552Z,96.57
2022-10-11T18:59:50.901Z,96.79
2022-10-11T19:02:23.203Z,96.27
2022-10-11T19:04:55.512Z,96.62
2022-10-11T19:07:28.605Z,97.14
2022-10-11T19:10:02.051Z,97.08
2022-10-11T19:12:34.386Z,97.05
2022-10-11T19:17:49.950Z,96.85
2022-10-11T19:20:22.416Z,96.96
2022-10-11T19:22:55.398Z,96.90
2022-10-11T19:25:28.048Z,97.28
2022-10-11T19:28:00.390Z,97.62
2022-10-11T19:30:32.724Z,98.01
2022-10-11T19:33:05.015Z,97.64
2022-10-11T19:35:37.341Z,97.53
2022-10-11T19:38:10.425Z,98.26
2022-10-11T19:40:42.803Z,98.10
2022-10-11T19:43:15.484Z,97.88
2022-10-11T19:45:48.172Z,97.47
2022-10-11T19:48:20.497Z,97.71
2022-10-11T19:50:52.880Z,98.25
2022-10-11T19:53:26.167Z,98.26
2022-10-11T19:56:00.401Z,98.17
2022-10-11T19:58:32.824Z,98.06
2022-10-11T20:01:07.506Z,98.40
2022-10-11T20:03:39.864Z,98.44
2022-10-11T20:06:12.495Z,98.08
2022-10-11T20:08:46.375Z,98.23
2022-10-11T20:11:20.031Z,98.24
2022-10-11T20:13:53.216Z,98.52
2022-10-11T20:16:27.596Z,98.57
2022-10-11T20:19:01.311Z,99.09
2022-10-11T20:21:33.632Z,98.93
2022-10-11T20:24:07.822Z,98.83
2022-10-11T20:26:40.259Z,98.28
2022-10-11T20:29:12.602Z,98.51
2022-10-11T20:31:45.008Z,97.99
2022-10-11T20:34:17.345Z,98.30
2022-10-11T20:36:49.678Z,98.19
2022-10-11T20:39:22.995Z,98.59
2022-10-11T20:41:55.329Z,98.82
2022-10-11T20:44:27.647Z,99.26
2022-10-11T20:47:03.894Z,99.40
2022-10-11T20:49:36.583Z,98.36
2022-10-11T20:52:08.832Z,98.37
2022-10-11T20:54:41.791Z,97.92
2022-10-11T20:57:14.103Z,98.21
2022-10-11T20:59:47.591Z,98.33
2022-10-11T21:02:19.920Z,98.44
2022-10-11T21:04:52.239Z,98.82
2022-10-11T21:07:24.583Z,99.10
2022-10-11T21:09:57.534Z,98.94
2022-10-11T21:12:29.838Z,98.98
2022-10-11T21:15:02.109Z,99.26
2022-10-11T21:17:34.914Z,99.18
2022-10-11T21:20:08.104Z,99.35
2022-10-11T21:22:40.414Z,99.66
2022-10-11T21:25:20.927Z,99.41
2022-10-11T21:27:53.251Z,99.22
2022-10-11T21:30:25.639Z,99.38
2022-10-11T21:32:57.955Z,99.92
2022-10-11T21:35:30.748Z,99.77
2022-10-11T21:38:03.083Z,100.00
2022-10-11T21:40:39.046Z,100.00
2022-10-11T21:43:11.342Z,100.00
2022-10-11T21:45:43.671Z,99.69
2022-10-11T21:48:16.011Z,100.00
2022-10-11T21:50:52.133Z,99.58
2022-10-11T21:53:24.467Z,99.60
2022-10-11T21:55:57.955Z,100.00
2022-10-11T21:58:30.286Z,100.00
2022-10-11T22:01:02.579Z,99.59
2022-10-11T22:03:34.905Z,99.59
2022-10-11T22:06:07.343Z,99.98
2022-10-11T22:08:39.850Z,99.65
2022-10-11T22:11:13.088Z,99.61
2022-10-11T22:13:45.445Z,100.00
2022-10-11T22:16:17.728Z,100.00
2022-10-11T22:18:52.432Z,100.00
2022-10-11T22:21:24.740Z,100.00
2022-10-11T22:23:57.089Z,100.00
2022-10-11T22:26:30.904Z,100.00
2022-10-11T22:29:03.504Z,99.94
2022-10-11T22:31:35.839Z,100.00
2022-10-11T22:34:08.170Z,100.00
2022-10-11T22:36:40.486Z,100.00
2022-10-11T22:39:13.067Z,100.00
2022-10-11T22:41:46.032Z,100.00
2022-10-11T22:44:18.316Z,100.00
2022-10-11T22:46:50.635Z,100.00
2022-10-11T22:49:22.929Z,100.00
2022-10-11T22:51:55.231Z,100.00
2022-10-11T22:54:27.597Z,100.00
2022-10-11T22:57:00.567Z,100.00
2022-10-11T22:59:32.895Z,100.00
2022-10-11T23:02:05.238Z,100.00
2022-10-11T23:04:37.575Z,100.00
2022-10-11T23:07:09.919Z,100.00
2022-10-11T23:09:42.237Z,100.00
2022-10-11T23:12:15.262Z,100.00
2022-10-11T23:14:47.530Z,100.00
2022-10-11T23:17:19.862Z,100.00
2022-10-11T23:19:52.367Z,100.00
2022-10-11T23:22:25.114Z,100.00
2022-10-11T23:24:57.470Z,100.00
2022-10-11T23:27:30.507Z,100.00
2022-10-11T23:30:03.497Z,100.00
2022-10-11T23:32:36.582Z,100.00
2022-10-11T23:35:18.484Z,100.00
2022-10-11T23:37:52.735Z,100.00
2022-10-11T23:40:25.103Z,100.00
2022-10-11T23:42:58.027Z,100.00
2022-10-11T23:45:30.371Z,100.00
2022-10-11T23:48:02.923Z,100.00
2022-10-11T23:50:35.217Z,100.00
2022-10-11T23:53:07.490Z,100.00
2022-10-11T23:55:39.967Z,100.00
2022-10-11T23:58:12.904Z,100.00
